sensor_id;sensor_type;location;lat;lon;timestamp;P1;durP1;ratioP1;P2;durP2;ratioP2
5869;SDS011;2961;47.702;9.410;2022-10-14T00:02:09;14.87;;;11.20;;
5869;SDS011;2961;47.702;9.410;2022-10-14T00:04:37;21.53;;;12.53;;
5869;SDS011;2961;47.702;9.410;2022-10-14T00:07:04;21.60;;;12.10;;
5869;SDS011;2961;47.702;9.410;2022-10-14T00:09:30;24.40;;;13.77;;
5869;SDS011;2961;47.702;9.410;2022-10-14T00:11:57;22.13;;;11.93;;
5869;SDS011;2961;47.702;9.410;2022-10-14T00:14:24;24.33;;;11.53;;
5869;SDS011;2961;47.702;9.410;2022-10-14T00:16:51;18.13;;;12.60;;
5869;SDS011;2961;47.702;9.410;2022-10-14T00:19:19;17.37;;;12.73;;
5869;SDS011;2961;47.702;9.410;2022-10-14T00:21:47;18.10;;;11.80;;
5869;SDS011;2961;47.702;9.410;2022-10-14T00:24:15;15.70;;;11.37;;
5869;SDS011;2961;47.702;9.410;2022-10-14T00:26:43;14.63;;;11.77;;
5869;SDS011;2961;47.702;9.410;2022-10-14T00:29:12;15.60;;;10.83;;
5869;SDS011;2961;47.702;9.410;2022-10-14T00:31:42;17.07;;;11.47;;
5869;SDS011;2961;47.702;9.410;2022-10-14T00:34:09;17.67;;;11.50;;
5869;SDS011;2961;47.702;9.410;2022-10-14T00:36:37;16.37;;;11.07;;
5869;SDS011;2961;47.702;9.410;2022-10-14T00:39:05;20.23;;;11.00;;
5869;SDS011;2961;47.702;9.410;2022-10-14T00:41:33;18.70;;;11.47;;
5869;SDS011;2961;47.702;9.410;2022-10-14T00:44:01;18.03;;;10.90;;
5869;SDS011;2961;47.702;9.410;2022-10-14T00:46:30;16.73;;;10.00;;
5869;SDS011;2961;47.702;9.410;2022-10-14T00:49:00;15.73;;;11.00;;
5869;SDS011;2961;47.702;9.410;2022-10-14T00:51:30;17.73;;;9.80;;
5869;SDS011;2961;47.702;9.410;2022-10-14T00:53:58;18.90;;;11.47;;
5869;SDS011;2961;47.702;9.410;2022-10-14T00:56:26;19.23;;;10.30;;
5869;SDS011;2961;47.702;9.410;2022-10-14T00:58:54;13.90;;;10.63;;
5869;SDS011;2961;47.702;9.410;2022-10-14T01:01:22;17.77;;;11.50;;
5869;SDS011;2961;47.702;9.410;2022-10-14T01:03:49;16.10;;;9.80;;
5869;SDS011;2961;47.702;9.410;2022-10-14T01:06:19;23.80;;;12.53;;
5869;SDS011;2961;47.702;9.410;2022-10-14T01:08:58;21.50;;;12.17;;
5869;SDS011;2961;47.702;9.410;2022-10-14T01:11:33;20.13;;;10.60;;
5869;SDS011;2961;47.702;9.410;2022-10-14T01:14:07;20.13;;;12.40;;
5869;SDS011;2961;47.702;9.410;2022-10-14T01:16:43;20.33;;;11.97;;
5869;SDS011;2961;47.702;9.410;2022-10-14T01:22:16;18.13;;;11.00;;
5869;SDS011;2961;47.702;9.410;2022-10-14T01:24:54;16.53;;;10.67;;
5869;SDS011;2961;47.702;9.410;2022-10-14T01:27:40;16.93;;;11.57;;
5869;SDS011;2961;47.702;9.410;2022-10-14T01:30:19;18.47;;;12.00;;
5869;SDS011;2961;47.702;9.410;2022-10-14T01:32:51;15.53;;;10.57;;
5869;SDS011;2961;47.702;9.410;2022-10-14T01:35:32;17.33;;;11.60;;
5869;SDS011;2961;47.702;9.410;2022-10-14T01:38:08;17.40;;;10.70;;
5869;SDS011;2961;47.702;9.410;2022-10-14T01:40:40;18.10;;;11.50;;
5869;SDS011;2961;47.702;9.410;2022-10-14T01:43:13;20.47;;;12.27;;
5869;SDS011;2961;47.702;9.410;2022-10-14T01:45:43;16.67;;;11.33;;
5869;SDS011;2961;47.702;9.410;2022-10-14T01:48:12;18.60;;;11.83;;
5869;SDS011;2961;47.702;9.410;2022-10-14T01:50:42;16.30;;;10.63;;
5869;SDS011;2961;47.702;9.410;2022-10-14T01:53:12;16.03;;;9.13;;
5869;SDS011;2961;47.702;9.410;2022-10-14T01:55:43;16.60;;;10.17;;
5869;SDS011;2961;47.702;9.410;2022-10-14T01:58:12;14.70;;;10.27;;
5869;SDS011;2961;47.702;9.410;2022-10-14T02:00:43;17.60;;;11.37;;
5869;SDS011;2961;47.702;9.410;2022-10-14T02:03:11;27.13;;;12.27;;
5869;SDS011;2961;47.702;9.410;2022-10-14T02:05:40;15.83;;;11.27;;
5869;SDS011;2961;47.702;9.410;2022-10-14T02:08:12;13.20;;;10.77;;
5869;SDS011;2961;47.702;9.410;2022-10-14T02:10:53;17.80;;;11.23;;
5869;SDS011;2961;47.702;9.410;2022-10-14T02:13:34;22.70;;;12.00;;
5869;SDS011;2961;47.702;9.410;2022-10-14T02:16:13;15.03;;;12.10;;
5869;SDS011;2961;47.702;9.410;2022-10-14T02:18:47;17.60;;;11.70;;
5869;SDS011;2961;47.702;9.410;2022-10-14T02:21:20;16.27;;;11.30;;
5869;SDS011;2961;47.702;9.410;2022-10-14T02:23:53;16.10;;;10.97;;
5869;SDS011;2961;47.702;9.410;2022-10-14T02:26:25;16.77;;;12.07;;
5869;SDS011;2961;47.702;9.410;2022-10-14T02:28:53;22.73;;;12.70;;
5869;SDS011;2961;47.702;9.410;2022-10-14T02:31:23;20.87;;;12.10;;
5869;SDS011;2961;47.702;9.410;2022-10-14T02:33:51;17.93;;;11.00;;
5869;SDS011;2961;47.702;9.410;2022-10-14T02:36:23;20.67;;;12.07;;
5869;SDS011;2961;47.702;9.410;2022-10-14T02:38:52;20.80;;;12.07;;
5869;SDS011;2961;47.702;9.410;2022-10-14T02:41:23;17.10;;;11.83;;
5869;SDS011;2961;47.702;9.410;2022-10-14T02:43:54;15.37;;;10.47;;
5869;SDS011;2961;47.702;9.410;2022-10-14T02:46:21;17.70;;;9.73;;
5869;SDS011;2961;47.702;9.410;2022-10-14T02:48:49;20.43;;;11.10;;
5869;SDS011;2961;47.702;9.410;2022-10-14T02:51:16;20.53;;;9.00;;
5869;SDS011;2961;47.702;9.410;2022-10-14T02:53:43;18.53;;;8.77;;
5869;SDS011;2961;47.702;9.410;2022-10-14T02:56:10;18.23;;;9.60;;
5869;SDS011;2961;47.702;9.410;2022-10-14T02:58:37;15.03;;;10.20;;
5869;SDS011;2961;47.702;9.410;2022-10-14T03:01:04;16.87;;;9.93;;
5869;SDS011;2961;47.702;9.410;2022-10-14T03:03:32;14.87;;;10.03;;
5869;SDS011;2961;47.702;9.410;2022-10-14T03:06:00;18.40;;;11.90;;
5869;SDS011;2961;47.702;9.410;2022-10-14T03:08:26;21.37;;;13.10;;
5869;SDS011;2961;47.702;9.410;2022-10-14T03:10:53;18.90;;;11.30;;
5869;SDS011;2961;47.702;9.410;2022-10-14T03:13:20;24.47;;;12.03;;
5869;SDS011;2961;47.702;9.410;2022-10-14T03:15:47;18.03;;;11.17;;
5869;SDS011;2961;47.702;9.410;2022-10-14T03:18:14;17.37;;;10.50;;
5869;SDS011;2961;47.702;9.410;2022-10-14T03:20:43;14.20;;;9.80;;
5869;SDS011;2961;47.702;9.410;2022-10-14T03:23:10;12.90;;;10.47;;
5869;SDS011;2961;47.702;9.410;2022-10-14T03:25:37;14.90;;;9.23;;
5869;SDS011;2961;47.702;9.410;2022-10-14T03:28:04;16.77;;;9.37;;
5869;SDS011;2961;47.702;9.410;2022-10-14T03:30:31;16.40;;;10.33;;
5869;SDS011;2961;47.702;9.410;2022-10-14T03:32:58;12.60;;;8.70;;
5869;SDS011;2961;47.702;9.410;2022-10-14T03:35:24;12.90;;;9.60;;
5869;SDS011;2961;47.702;9.410;2022-10-14T03:37:52;11.23;;;9.10;;
5869;SDS011;2961;47.702;9.410;2022-10-14T03:40:19;14.40;;;8.17;;
5869;SDS011;2961;47.702;9.410;2022-10-14T03:42:46;13.77;;;8.50;;
5869;SDS011;2961;47.702;9.410;2022-10-14T03:45:13;13.70;;;8.23;;
5869;SDS011;2961;47.702;9.410;2022-10-14T03:47:40;12.60;;;9.23;;
5869;SDS011;2961;47.702;9.410;2022-10-14T03:50:07;13.47;;;7.93;;
5869;SDS011;2961;47.702;9.410;2022-10-14T03:52:34;10.40;;;7.63;;
5869;SDS011;2961;47.702;9.410;2022-10-14T03:55:03;11.87;;;8.43;;
5869;SDS011;2961;47.702;9.410;2022-10-14T03:57:30;8.10;;;7.37;;
5869;SDS011;2961;47.702;9.410;2022-10-14T03:59:57;11.50;;;7.23;;
5869;SDS011;2961;47.702;9.410;2022-10-14T04:02:23;8.37;;;7.47;;
5869;SDS011;2961;47.702;9.410;2022-10-14T04:04:50;11.77;;;8.10;;
5869;SDS011;2961;47.702;9.410;2022-10-14T04:07:17;10.50;;;8.30;;
5869;SDS011;2961;47.702;9.410;2022-10-14T04:09:43;10.37;;;6.93;;
5869;SDS011;2961;47.702;9.410;2022-10-14T04:12:12;11.73;;;8.10;;
5869;SDS011;2961;47.702;9.410;2022-10-14T04:14:39;10.53;;;7.40;;
5869;SDS011;2961;47.702;9.410;2022-10-14T04:17:05;15.70;;;7.37;;
5869;SDS011;2961;47.702;9.410;2022-10-14T04:19:32;12.57;;;7.40;;
5869;SDS011;2961;47.702;9.410;2022-10-14T04:21:59;7.60;;;6.60;;
5869;SDS011;2961;47.702;9.410;2022-10-14T04:24:26;7.10;;;5.83;;
5869;SDS011;2961;47.702;9.410;2022-10-14T04:26:52;9.73;;;7.03;;
5869;SDS011;2961;47.702;9.410;2022-10-14T04:29:20;7.10;;;6.50;;
5869;SDS011;2961;47.702;9.410;2022-10-14T04:31:47;11.50;;;6.27;;
5869;SDS011;2961;47.702;9.410;2022-10-14T04:34:14;13.40;;;6.73;;
5869;SDS011;2961;47.702;9.410;2022-10-14T04:36:41;6.10;;;5.53;;
5869;SDS011;2961;47.702;9.410;2022-10-14T04:39:07;10.43;;;7.27;;
5869;SDS011;2961;47.702;9.410;2022-10-14T04:41:35;7.17;;;6.47;;
5869;SDS011;2961;47.702;9.410;2022-10-14T04:44:02;8.30;;;6.43;;
5869;SDS011;2961;47.702;9.410;2022-10-14T04:46:30;19.00;;;5.83;;
5869;SDS011;2961;47.702;9.410;2022-10-14T04:48:57;7.23;;;6.27;;
5869;SDS011;2961;47.702;9.410;2022-10-14T04:51:24;7.60;;;5.67;;
5869;SDS011;2961;47.702;9.410;2022-10-14T04:53:51;6.30;;;5.17;;
5869;SDS011;2961;47.702;9.410;2022-10-14T04:56:17;14.80;;;5.80;;
5869;SDS011;2961;47.702;9.410;2022-10-14T04:58:44;7.53;;;5.27;;
5869;SDS011;2961;47.702;9.410;2022-10-14T05:01:11;11.10;;;5.80;;
5869;SDS011;2961;47.702;9.410;2022-10-14T05:03:39;9.97;;;7.30;;
5869;SDS011;2961;47.702;9.410;2022-10-14T05:06:20;9.07;;;5.70;;
5869;SDS011;2961;47.702;9.410;2022-10-14T05:08:47;6.82;;;6.20;;
5869;SDS011;2961;47.702;9.410;2022-10-14T05:11:13;7.30;;;6.60;;
5869;SDS011;2961;47.702;9.410;2022-10-14T05:13:40;6.87;;;5.67;;
5869;SDS011;2961;47.702;9.410;2022-10-14T05:16:07;5.63;;;5.10;;
5869;SDS011;2961;47.702;9.410;2022-10-14T05:18:34;9.47;;;5.80;;
5869;SDS011;2961;47.702;9.410;2022-10-14T05:21:02;8.20;;;5.70;;
5869;SDS011;2961;47.702;9.410;2022-10-14T05:23:29;7.10;;;5.50;;
5869;SDS011;2961;47.702;9.410;2022-10-14T05:25:56;9.20;;;5.30;;
5869;SDS011;2961;47.702;9.410;2022-10-14T05:28:23;6.73;;;5.73;;
5869;SDS011;2961;47.702;9.410;2022-10-14T05:30:50;6.33;;;5.07;;
5869;SDS011;2961;47.702;9.410;2022-10-14T05:33:17;6.10;;;5.50;;
5869;SDS011;2961;47.702;9.410;2022-10-14T05:35:44;7.10;;;5.70;;
5869;SDS011;2961;47.702;9.410;2022-10-14T05:38:12;6.60;;;5.67;;
5869;SDS011;2961;47.702;9.410;2022-10-14T05:40:39;5.50;;;4.93;;
5869;SDS011;2961;47.702;9.410;2022-10-14T05:43:06;12.20;;;5.23;;
5869;SDS011;2961;47.702;9.410;2022-10-14T05:45:33;7.70;;;4.80;;
5869;SDS011;2961;47.702;9.410;2022-10-14T05:48:00;7.27;;;5.50;;
5869;SDS011;2961;47.702;9.410;2022-10-14T05:50:26;9.93;;;4.57;;
5869;SDS011;2961;47.702;9.410;2022-10-14T05:52:53;6.87;;;4.40;;
5869;SDS011;2961;47.702;9.410;2022-10-14T05:55:21;13.27;;;5.67;;
5869;SDS011;2961;47.702;9.410;2022-10-14T05:57:48;5.60;;;5.07;;
5869;SDS011;2961;47.702;9.410;2022-10-14T06:00:15;9.07;;;4.77;;
5869;SDS011;2961;47.702;9.410;2022-10-14T06:02:43;14.33;;;5.30;;
5869;SDS011;2961;47.702;9.410;2022-10-14T06:05:10;7.40;;;5.47;;
5869;SDS011;2961;47.702;9.410;2022-10-14T06:07:37;8.55;;;6.88;;
5869;SDS011;2961;47.702;9.410;2022-10-14T06:10:04;6.90;;;5.50;;
5869;SDS011;2961;47.702;9.410;2022-10-14T06:12:32;8.87;;;5.60;;
5869;SDS011;2961;47.702;9.410;2022-10-14T06:14:59;6.40;;;5.43;;
5869;SDS011;2961;47.702;9.410;2022-10-14T06:17:26;7.20;;;6.10;;
5869;SDS011;2961;47.702;9.410;2022-10-14T06:19:53;6.93;;;5.40;;
5869;SDS011;2961;47.702;9.410;2022-10-14T06:22:20;11.37;;;6.00;;
5869;SDS011;2961;47.702;9.410;2022-10-14T06:24:47;6.00;;;5.40;;
5869;SDS011;2961;47.702;9.410;2022-10-14T06:27:14;6.53;;;5.93;;
5869;SDS011;2961;47.702;9.410;2022-10-14T06:29:42;8.03;;;6.00;;
5869;SDS011;2961;47.702;9.410;2022-10-14T06:32:09;5.30;;;4.90;;
5869;SDS011;2961;47.702;9.410;2022-10-14T06:37:21;7.07;;;6.50;;
5869;SDS011;2961;47.702;9.410;2022-10-14T06:39:48;6.23;;;5.23;;
5869;SDS011;2961;47.702;9.410;2022-10-14T06:42:14;5.73;;;5.23;;
5869;SDS011;2961;47.702;9.410;2022-10-14T06:44:43;5.30;;;4.80;;
5869;SDS011;2961;47.702;9.410;2022-10-14T06:47:10;5.93;;;5.43;;
5869;SDS011;2961;47.702;9.410;2022-10-14T06:49:37;5.30;;;4.87;;
5869;SDS011;2961;47.702;9.410;2022-10-14T06:52:04;5.20;;;4.80;;
5869;SDS011;2961;47.702;9.410;2022-10-14T06:54:31;5.77;;;5.17;;
5869;SDS011;2961;47.702;9.410;2022-10-14T06:56:57;5.00;;;4.43;;
5869;SDS011;2961;47.702;9.410;2022-10-14T06:59:24;4.70;;;4.40;;
5869;SDS011;2961;47.702;9.410;2022-10-14T07:01:54;7.07;;;4.60;;
5869;SDS011;2961;47.702;9.410;2022-10-14T07:04:21;9.37;;;4.77;;
5869;SDS011;2961;47.702;9.410;2022-10-14T07:06:47;5.40;;;4.90;;
5869;SDS011;2961;47.702;9.410;2022-10-14T07:09:15;7.50;;;5.27;;
5869;SDS011;2961;47.702;9.410;2022-10-14T07:11:42;4.27;;;3.97;;
5869;SDS011;2961;47.702;9.410;2022-10-14T07:14:09;4.30;;;4.00;;
5869;SDS011;2961;47.702;9.410;2022-10-14T07:16:36;5.90;;;4.03;;
5869;SDS011;2961;47.702;9.410;2022-10-14T07:19:04;8.70;;;4.80;;
5869;SDS011;2961;47.702;9.410;2022-10-14T07:21:31;3.67;;;3.37;;
5869;SDS011;2961;47.702;9.410;2022-10-14T07:23:57;5.03;;;4.57;;
5869;SDS011;2961;47.702;9.410;2022-10-14T07:26:24;6.17;;;4.83;;
5869;SDS011;2961;47.702;9.410;2022-10-14T07:28:51;9.90;;;4.20;;
5869;SDS011;2961;47.702;9.410;2022-10-14T07:31:19;5.63;;;5.07;;
5869;SDS011;2961;47.702;9.410;2022-10-14T07:33:46;9.23;;;4.50;;
5869;SDS011;2961;47.702;9.410;2022-10-14T07:36:14;5.47;;;4.40;;
5869;SDS011;2961;47.702;9.410;2022-10-14T07:38:42;8.30;;;4.60;;
5869;SDS011;2961;47.702;9.410;2022-10-14T07:41:10;5.53;;;3.73;;
5869;SDS011;2961;47.702;9.410;2022-10-14T07:43:42;4.17;;;3.77;;
5869;SDS011;2961;47.702;9.410;2022-10-14T07:46:09;7.30;;;4.60;;
5869;SDS011;2961;47.702;9.410;2022-10-14T07:48:37;4.43;;;4.03;;
5869;SDS011;2961;47.702;9.410;2022-10-14T07:51:04;4.07;;;3.77;;
5869;SDS011;2961;47.702;9.410;2022-10-14T07:53:33;4.63;;;3.53;;
5869;SDS011;2961;47.702;9.410;2022-10-14T07:56:01;4.33;;;4.03;;
5869;SDS011;2961;47.702;9.410;2022-10-14T07:58:29;4.00;;;3.40;;
5869;SDS011;2961;47.702;9.410;2022-10-14T08:00:57;9.70;;;4.03;;
5869;SDS011;2961;47.702;9.410;2022-10-14T08:03:24;3.73;;;3.27;;
5869;SDS011;2961;47.702;9.410;2022-10-14T08:05:57;7.83;;;3.63;;
5869;SDS011;2961;47.702;9.410;2022-10-14T08:08:25;4.97;;;3.93;;
5869;SDS011;2961;47.702;9.410;2022-10-14T08:11:00;3.73;;;3.53;;
5869;SDS011;2961;47.702;9.410;2022-10-14T08:13:27;3.90;;;3.50;;
5869;SDS011;2961;47.702;9.410;2022-10-14T08:15:54;3.93;;;3.53;;
5869;SDS011;2961;47.702;9.410;2022-10-14T08:18:23;4.00;;;3.70;;
5869;SDS011;2961;47.702;9.410;2022-10-14T08:20:50;3.80;;;3.50;;
5869;SDS011;2961;47.702;9.410;2022-10-14T08:23:17;3.60;;;3.30;;
5869;SDS011;2961;47.702;9.410;2022-10-14T08:25:45;4.77;;;3.43;;
5869;SDS011;2961;47.702;9.410;2022-10-14T08:28:14;3.17;;;2.97;;
5869;SDS011;2961;47.702;9.410;2022-10-14T08:30:41;5.30;;;3.77;;
5869;SDS011;2961;47.702;9.410;2022-10-14T08:33:08;3.13;;;2.87;;
5869;SDS011;2961;47.702;9.410;2022-10-14T08:35:37;3.53;;;3.23;;
5869;SDS011;2961;47.702;9.410;2022-10-14T08:38:03;2.93;;;2.73;;
5869;SDS011;2961;47.702;9.410;2022-10-14T08:40:32;2.70;;;2.50;;
5869;SDS011;2961;47.702;9.410;2022-10-14T08:43:12;2.63;;;2.43;;
5869;SDS011;2961;47.702;9.410;2022-10-14T08:45:48;3.40;;;2.20;;
5869;SDS011;2961;47.702;9.410;2022-10-14T08:48:18;3.40;;;3.20;;
5869;SDS011;2961;47.702;9.410;2022-10-14T08:50:50;2.80;;;2.60;;
5869;SDS011;2961;47.702;9.410;2022-10-14T08:53:34;3.63;;;2.90;;
5869;SDS011;2961;47.702;9.410;2022-10-14T08:56:03;2.67;;;2.40;;
5869;SDS011;2961;47.702;9.410;2022-10-14T08:58:34;3.03;;;2.70;;
5869;SDS011;2961;47.702;9.410;2022-10-14T09:01:09;7.37;;;2.90;;
5869;SDS011;2961;47.702;9.410;2022-10-14T09:03:51;3.20;;;3.00;;
5869;SDS011;2961;47.702;9.410;2022-10-14T09:06:23;3.23;;;2.97;;
5869;SDS011;2961;47.702;9.410;2022-10-14T09:08:53;2.30;;;2.20;;
5869;SDS011;2961;47.702;9.410;2022-10-14T09:11:22;3.70;;;2.63;;
5869;SDS011;2961;47.702;9.410;2022-10-14T09:13:52;11.67;;;3.17;;
5869;SDS011;2961;47.702;9.410;2022-10-14T09:16:23;3.90;;;2.67;;
5869;SDS011;2961;47.702;9.410;2022-10-14T09:18:53;3.50;;;2.47;;
5869;SDS011;2961;47.702;9.410;2022-10-14T09:21:26;3.93;;;3.17;;
5869;SDS011;2961;47.702;9.410;2022-10-14T09:23:56;4.03;;;2.80;;
5869;SDS011;2961;47.702;9.410;2022-10-14T09:26:28;2.73;;;2.60;;
5869;SDS011;2961;47.702;9.410;2022-10-14T09:29:05;5.70;;;2.60;;
5869;SDS011;2961;47.702;9.410;2022-10-14T09:31:38;5.23;;;2.20;;
5869;SDS011;2961;47.702;9.410;2022-10-14T09:34:07;2.97;;;2.33;;
5869;SDS011;2961;47.702;9.410;2022-10-14T09:36:38;7.63;;;2.70;;
5869;SDS011;2961;47.702;9.410;2022-10-14T09:39:07;2.73;;;2.40;;
5869;SDS011;2961;47.702;9.410;2022-10-14T09:41:36;3.30;;;2.73;;
5869;SDS011;2961;47.702;9.410;2022-10-14T09:44:19;3.23;;;2.70;;
5869;SDS011;2961;47.702;9.410;2022-10-14T09:46:48;2.80;;;2.67;;
5869;SDS011;2961;47.702;9.410;2022-10-14T09:49:19;3.43;;;2.60;;
5869;SDS011;2961;47.702;9.410;2022-10-14T09:51:50;2.83;;;2.63;;
5869;SDS011;2961;47.702;9.410;2022-10-14T09:54:19;3.57;;;3.23;;
5869;SDS011;2961;47.702;9.410;2022-10-14T09:56:49;2.93;;;2.70;;
5869;SDS011;2961;47.702;9.410;2022-10-14T09:59:26;7.00;;;3.30;;
5869;SDS011;2961;47.702;9.410;2022-10-14T10:01:54;4.43;;;3.43;;
5869;SDS011;2961;47.702;9.410;2022-10-14T10:04:24;2.97;;;2.77;;
5869;SDS011;2961;47.702;9.410;2022-10-14T10:07:02;4.47;;;3.23;;
5869;SDS011;2961;47.702;9.410;2022-10-14T10:09:32;7.30;;;3.53;;
5869;SDS011;2961;47.702;9.410;2022-10-14T10:11:59;3.87;;;3.57;;
5869;SDS011;2961;47.702;9.410;2022-10-14T10:14:49;4.03;;;3.73;;
5869;SDS011;2961;47.702;9.410;2022-10-14T10:17:26;4.20;;;3.67;;
5869;SDS011;2961;47.702;9.410;2022-10-14T10:20:07;8.10;;;3.63;;
5869;SDS011;2961;47.702;9.410;2022-10-14T10:22:43;6.83;;;3.70;;
5869;SDS011;2961;47.702;9.410;2022-10-14T10:25:18;6.83;;;3.30;;
5869;SDS011;2961;47.702;9.410;2022-10-14T10:27:53;6.13;;;5.10;;
5869;SDS011;2961;47.702;9.410;2022-10-14T10:30:25;4.50;;;4.10;;
5869;SDS011;2961;47.702;9.410;2022-10-14T10:33:02;3.93;;;3.60;;
5869;SDS011;2961;47.702;9.410;2022-10-14T10:35:51;6.63;;;4.93;;
5869;SDS011;2961;47.702;9.410;2022-10-14T10:38:43;6.20;;;4.37;;
5869;SDS011;2961;47.702;9.410;2022-10-14T10:41:25;6.47;;;4.20;;
5869;SDS011;2961;47.702;9.410;2022-10-14T10:44:13;5.07;;;4.53;;
5869;SDS011;2961;47.702;9.410;2022-10-14T10:47:00;3.73;;;3.50;;
5869;SDS011;2961;47.702;9.410;2022-10-14T10:52:30;4.23;;;3.83;;
5869;SDS011;2961;47.702;9.410;2022-10-14T10:55:12;4.00;;;3.70;;
5869;SDS011;2961;47.702;9.410;2022-10-14T10:57:49;4.93;;;4.50;;
5869;SDS011;2961;47.702;9.410;2022-10-14T11:00:23;8.07;;;4.70;;
5869;SDS011;2961;47.702;9.410;2022-10-14T11:02:55;5.03;;;4.00;;
5869;SDS011;2961;47.702;9.410;2022-10-14T11:08:27;4.00;;;3.43;;
5869;SDS011;2961;47.702;9.410;2022-10-14T11:11:22;6.00;;;4.43;;
5869;SDS011;2961;47.702;9.410;2022-10-14T11:14:12;6.07;;;3.97;;
5869;SDS011;2961;47.702;9.410;2022-10-14T11:16:48;7.97;;;3.60;;
5869;SDS011;2961;47.702;9.410;2022-10-14T11:19:21;5.00;;;3.90;;
5869;SDS011;2961;47.702;9.410;2022-10-14T11:21:58;4.30;;;3.90;;
5869;SDS011;2961;47.702;9.410;2022-10-14T11:24:33;6.67;;;3.23;;
5869;SDS011;2961;47.702;9.410;2022-10-14T11:27:08;3.37;;;3.17;;
5869;SDS011;2961;47.702;9.410;2022-10-14T11:29:44;4.43;;;3.17;;
5869;SDS011;2961;47.702;9.410;2022-10-14T11:32:35;4.30;;;3.63;;
5869;SDS011;2961;47.702;9.410;2022-10-14T11:35:17;2.97;;;2.73;;
5869;SDS011;2961;47.702;9.410;2022-10-14T11:37:58;4.27;;;3.73;;
5869;SDS011;2961;47.702;9.410;2022-10-14T11:40:33;3.40;;;3.10;;
5869;SDS011;2961;47.702;9.410;2022-10-14T11:43:08;2.80;;;2.60;;
5869;SDS011;2961;47.702;9.410;2022-10-14T11:45:59;5.80;;;3.07;;
5869;SDS011;2961;47.702;9.410;2022-10-14T11:48:33;15.87;;;2.87;;
5869;SDS011;2961;47.702;9.410;2022-10-14T11:51:08;5.07;;;2.27;;
5869;SDS011;2961;47.702;9.410;2022-10-14T11:53:42;3.13;;;2.40;;
5869;SDS011;2961;47.702;9.410;2022-10-14T11:56:22;3.13;;;2.83;;
5869;SDS011;2961;47.702;9.410;2022-10-14T11:59:24;3.87;;;3.47;;
5869;SDS011;2961;47.702;9.410;2022-10-14T12:01:58;16.53;;;3.20;;
5869;SDS011;2961;47.702;9.410;2022-10-14T12:04:34;2.77;;;2.60;;
5869;SDS011;2961;47.702;9.410;2022-10-14T12:07:04;3.27;;;2.70;;
5869;SDS011;2961;47.702;9.410;2022-10-14T12:09:38;3.23;;;2.90;;
5869;SDS011;2961;47.702;9.410;2022-10-14T12:12:08;2.23;;;2.13;;
5869;SDS011;2961;47.702;9.410;2022-10-14T12:14:38;2.40;;;2.27;;
5869;SDS011;2961;47.702;9.410;2022-10-14T12:17:15;3.05;;;2.78;;
5869;SDS011;2961;47.702;9.410;2022-10-14T12:19:46;4.27;;;2.50;;
5869;SDS011;2961;47.702;9.410;2022-10-14T12:22:15;3.73;;;2.77;;
5869;SDS011;2961;47.702;9.410;2022-10-14T12:24:48;4.53;;;2.60;;
5869;SDS011;2961;47.702;9.410;2022-10-14T12:27:17;2.80;;;2.60;;
5869;SDS011;2961;47.702;9.410;2022-10-14T12:29:47;6.00;;;3.30;;
5869;SDS011;2961;47.702;9.410;2022-10-14T12:32:16;3.83;;;3.53;;
5869;SDS011;2961;47.702;9.410;2022-10-14T12:34:48;4.27;;;3.13;;
5869;SDS011;2961;47.702;9.410;2022-10-14T12:40:22;3.80;;;3.20;;
5869;SDS011;2961;47.702;9.410;2022-10-14T12:42:53;3.57;;;2.97;;
5869;SDS011;2961;47.702;9.410;2022-10-14T12:45:23;4.03;;;3.60;;
5869;SDS011;2961;47.702;9.410;2022-10-14T12:47:59;12.00;;;4.50;;
5869;SDS011;2961;47.702;9.410;2022-10-14T12:50:33;5.10;;;3.70;;
5869;SDS011;2961;47.702;9.410;2022-10-14T12:53:05;5.93;;;3.40;;
5869;SDS011;2961;47.702;9.410;2022-10-14T12:55:35;4.70;;;3.90;;
5869;SDS011;2961;47.702;9.410;2022-10-14T12:58:15;6.40;;;3.80;;
5869;SDS011;2961;47.702;9.410;2022-10-14T13:00:58;5.80;;;4.00;;
5869;SDS011;2961;47.702;9.410;2022-10-14T13:03:29;6.10;;;4.43;;
5869;SDS011;2961;47.702;9.410;2022-10-14T13:15:28;6.60;;;3.93;;
5869;SDS011;2961;47.702;9.410;2022-10-14T13:21:20;5.07;;;3.90;;
5869;SDS011;2961;47.702;9.410;2022-10-14T13:24:11;3.70;;;3.00;;
5869;SDS011;2961;47.702;9.410;2022-10-14T13:26:43;3.33;;;3.00;;
5869;SDS011;2961;47.702;9.410;2022-10-14T13:29:39;4.87;;;3.40;;
5869;SDS011;2961;47.702;9.410;2022-10-14T13:32:25;5.43;;;4.17;;
5869;SDS011;2961;47.702;9.410;2022-10-14T13:35:00;3.70;;;3.40;;
5869;SDS011;2961;47.702;9.410;2022-10-14T13:37:37;5.07;;;3.90;;
5869;SDS011;2961;47.702;9.410;2022-10-14T13:40:11;4.13;;;3.80;;
5869;SDS011;2961;47.702;9.410;2022-10-14T13:42:55;3.70;;;3.00;;
5869;SDS011;2961;47.702;9.410;2022-10-14T13:45:26;5.97;;;2.90;;
5869;SDS011;2961;47.702;9.410;2022-10-14T13:47:58;5.90;;;3.30;;
5869;SDS011;2961;47.702;9.410;2022-10-14T13:50:26;3.77;;;3.17;;
5869;SDS011;2961;47.702;9.410;2022-10-14T13:53:04;4.97;;;2.87;;
5869;SDS011;2961;47.702;9.410;2022-10-14T13:55:41;3.27;;;2.70;;
5869;SDS011;2961;47.702;9.410;2022-10-14T13:58:10;3.03;;;2.83;;
5869;SDS011;2961;47.702;9.410;2022-10-14T14:00:50;4.20;;;3.80;;
5869;SDS011;2961;47.702;9.410;2022-10-14T14:03:26;3.53;;;3.30;;
5869;SDS011;2961;47.702;9.410;2022-10-14T14:06:08;7.63;;;3.23;;
5869;SDS011;2961;47.702;9.410;2022-10-14T14:08:39;6.03;;;3.97;;
5869;SDS011;2961;47.702;9.410;2022-10-14T14:11:15;3.77;;;3.00;;
5869;SDS011;2961;47.702;9.410;2022-10-14T14:13:45;4.77;;;3.63;;
5869;SDS011;2961;47.702;9.410;2022-10-14T14:16:26;6.63;;;4.27;;
5869;SDS011;2961;47.702;9.410;2022-10-14T14:18:56;9.47;;;3.83;;
5869;SDS011;2961;47.702;9.410;2022-10-14T14:21:23;3.70;;;3.50;;
5869;SDS011;2961;47.702;9.410;2022-10-14T14:23:52;6.00;;;4.33;;
5869;SDS011;2961;47.702;9.410;2022-10-14T14:26:20;4.67;;;4.20;;
5869;SDS011;2961;47.702;9.410;2022-10-14T14:28:52;4.73;;;4.20;;
5869;SDS011;2961;47.702;9.410;2022-10-14T14:31:20;8.63;;;4.10;;
5869;SDS011;2961;47.702;9.410;2022-10-14T14:34:01;3.63;;;3.40;;
5869;SDS011;2961;47.702;9.410;2022-10-14T14:36:29;6.40;;;4.27;;
5869;SDS011;2961;47.702;9.410;2022-10-14T14:38:57;7.73;;;5.10;;
5869;SDS011;2961;47.702;9.410;2022-10-14T14:41:25;10.63;;;4.63;;
5869;SDS011;2961;47.702;9.410;2022-10-14T14:43:55;6.67;;;4.17;;
5869;SDS011;2961;47.702;9.410;2022-10-14T14:46:37;5.00;;;4.60;;
5869;SDS011;2961;47.702;9.410;2022-10-14T14:49:07;5.80;;;5.17;;
5869;SDS011;2961;47.702;9.410;2022-10-14T14:51:40;6.70;;;5.37;;
5869;SDS011;2961;47.702;9.410;2022-10-14T14:54:11;5.80;;;5.20;;
5869;SDS011;2961;47.702;9.410;2022-10-14T14:56:42;8.90;;;5.77;;
5869;SDS011;2961;47.702;9.410;2022-10-14T14:59:17;9.17;;;6.50;;
5869;SDS011;2961;47.702;9.410;2022-10-14T15:01:50;5.87;;;5.30;;
5869;SDS011;2961;47.702;9.410;2022-10-14T15:04:19;6.27;;;5.63;;
5869;SDS011;2961;47.702;9.410;2022-10-14T15:06:49;9.27;;;6.27;;
5869;SDS011;2961;47.702;9.410;2022-10-14T15:09:22;5.60;;;5.10;;
5869;SDS011;2961;47.702;9.410;2022-10-14T15:11:55;5.50;;;5.10;;
5869;SDS011;2961;47.702;9.410;2022-10-14T15:14:26;7.70;;;6.33;;
5869;SDS011;2961;47.702;9.410;2022-10-14T15:16:55;6.30;;;5.70;;
5869;SDS011;2961;47.702;9.410;2022-10-14T15:22:20;9.27;;;6.20;;
5869;SDS011;2961;47.702;9.410;2022-10-14T15:24:59;6.27;;;5.67;;
5869;SDS011;2961;47.702;9.410;2022-10-14T15:27:38;14.80;;;5.47;;
5869;SDS011;2961;47.702;9.410;2022-10-14T15:30:24;7.80;;;5.70;;
5869;SDS011;2961;47.702;9.410;2022-10-14T15:32:59;10.73;;;5.57;;
5869;SDS011;2961;47.702;9.410;2022-10-14T15:35:28;6.20;;;5.63;;
5869;SDS011;2961;47.702;9.410;2022-10-14T15:37:56;8.60;;;6.90;;
5869;SDS011;2961;47.702;9.410;2022-10-14T15:40:25;7.00;;;6.30;;
5869;SDS011;2961;47.702;9.410;2022-10-14T15:42:53;9.33;;;6.83;;
5869;SDS011;2961;47.702;9.410;2022-10-14T15:45:20;7.60;;;6.43;;
5869;SDS011;2961;47.702;9.410;2022-10-14T15:47:51;13.30;;;7.20;;
5869;SDS011;2961;47.702;9.410;2022-10-14T15:50:19;9.17;;;7.70;;
5869;SDS011;2961;47.702;9.410;2022-10-14T15:52:49;16.33;;;7.57;;
5869;SDS011;2961;47.702;9.410;2022-10-14T15:55:18;13.27;;;6.33;;
5869;SDS011;2961;47.702;9.410;2022-10-14T15:57:46;13.73;;;8.17;;
5869;SDS011;2961;47.702;9.410;2022-10-14T16:00:14;13.00;;;9.10;;
5869;SDS011;2961;47.702;9.410;2022-10-14T16:02:42;14.43;;;7.30;;